createdAt,value
2023-05-04T00:01:03.883Z,13.80
2023-05-04T00:03:31.485Z,14.82
2023-05-04T00:05:59.192Z,14.38
2023-05-04T00:08:26.895Z,13.95
2023-05-04T00:10:55.772Z,13.57
2023-05-04T00:13:23.610Z,14.70
2023-05-04T00:15:51.233Z,14.00
2023-05-04T00:18:19.114Z,13.95
2023-05-04T00:20:47.152Z,14.20
2023-05-04T00:23:14.729Z,15.68
2023-05-04T00:25:42.537Z,14.90
2023-05-04T00:28:10.418Z,14.48
2023-05-04T00:30:38.195Z,13.77
2023-05-04T00:33:06.018Z,15.00
2023-05-04T00:35:33.574Z,14.55
2023-05-04T00:38:04.906Z,15.75
2023-05-04T00:40:32.524Z,14.68
2023-05-04T00:43:00.104Z,15.55
2023-05-04T00:45:27.874Z,15.15
2023-05-04T00:47:56.241Z,14.55
2023-05-04T00:50:23.957Z,15.20
2023-05-04T00:52:52.106Z,14.57
2023-05-04T00:55:20.584Z,15.75
2023-05-04T00:57:49.249Z,16.02
2023-05-04T01:00:17.240Z,15.32
2023-05-04T01:02:44.950Z,15.52
2023-05-04T01:05:12.678Z,15.45
2023-05-04T01:07:52.864Z,14.45
2023-05-04T01:10:27.957Z,15.63
2023-05-04T01:12:59.214Z,16.40
2023-05-04T01:15:27.982Z,16.02
2023-05-04T01:17:56.716Z,15.90
2023-05-04T01:20:24.307Z,15.80
2023-05-04T01:22:52.103Z,15.38
2023-05-04T01:25:21.130Z,15.98
2023-05-04T01:28:00.541Z,16.08
2023-05-04T01:30:31.239Z,16.08
2023-05-04T01:32:59.543Z,15.75
2023-05-04T01:35:27.240Z,16.05
2023-05-04T01:37:54.786Z,16.00
2023-05-04T01:40:22.414Z,15.60
2023-05-04T01:42:50.568Z,14.88
2023-05-04T01:45:18.133Z,15.90
2023-05-04T01:47:45.914Z,15.82
2023-05-04T01:50:13.600Z,15.00
2023-05-04T01:52:41.199Z,14.93
2023-05-04T01:55:08.894Z,15.40
2023-05-04T01:57:36.688Z,15.43
2023-05-04T02:00:04.652Z,15.63
2023-05-04T02:02:43.402Z,15.73
2023-05-04T02:05:13.640Z,16.80
2023-05-04T02:07:41.233Z,15.60
2023-05-04T02:10:09.172Z,15.60
2023-05-04T02:12:36.776Z,15.20
2023-05-04T02:15:04.431Z,15.43
2023-05-04T02:17:32.090Z,14.88
2023-05-04T02:19:59.618Z,14.38
2023-05-04T02:22:27.216Z,14.82
2023-05-04T02:24:54.721Z,14.65
2023-05-04T02:27:22.215Z,16.58
2023-05-04T02:29:49.871Z,16.20
2023-05-04T02:32:17.434Z,16.17
2023-05-04T02:34:45.010Z,16.52
2023-05-04T02:37:12.956Z,16.20
2023-05-04T02:39:40.570Z,15.68
2023-05-04T02:42:08.130Z,16.95
2023-05-04T02:44:35.659Z,15.57
2023-05-04T02:47:03.238Z,15.85
2023-05-04T02:49:31.183Z,15.70
2023-05-04T02:51:58.726Z,14.85
2023-05-04T02:54:26.235Z,15.18
2023-05-04T02:56:53.806Z,16.05
2023-05-04T02:59:21.345Z,16.00
2023-05-04T03:01:49.047Z,17.23
2023-05-04T03:04:17.004Z,16.17
2023-05-04T03:06:44.630Z,16.75
2023-05-04T03:09:12.437Z,16.10
2023-05-04T03:11:39.960Z,17.27
2023-05-04T03:14:07.742Z,16.15
2023-05-04T03:16:35.525Z,15.55
2023-05-04T03:19:03.719Z,16.60
2023-05-04T03:21:31.329Z,16.77
2023-05-04T03:24:00.041Z,15.95
2023-05-04T03:26:28.323Z,16.58
2023-05-04T03:28:55.921Z,16.75
2023-05-04T03:31:23.742Z,16.67
2023-05-04T03:33:53.290Z,16.25
2023-05-04T03:36:22.179Z,16.75
2023-05-04T03:38:50.371Z,18.25
2023-05-04T03:41:18.471Z,17.45
2023-05-04T03:43:46.191Z,17.73
2023-05-04T03:46:13.911Z,16.10
2023-05-04T03:48:41.994Z,16.33
2023-05-04T03:53:44.565Z,15.32
2023-05-04T03:56:13.491Z,16.65
2023-05-04T03:58:41.580Z,17.42
2023-05-04T04:01:09.158Z,16.67
2023-05-04T04:03:36.854Z,16.23
2023-05-04T04:06:05.302Z,17.17
2023-05-04T04:08:32.837Z,17.90
2023-05-04T04:11:00.490Z,16.45
2023-05-04T04:13:28.358Z,16.80
2023-05-04T04:15:56.028Z,17.42
2023-05-04T04:18:24.320Z,18.08
2023-05-04T04:20:52.140Z,17.23
2023-05-04T04:23:19.736Z,17.90
2023-05-04T04:25:47.276Z,17.98
2023-05-04T04:28:15.058Z,17.35
2023-05-04T04:30:42.684Z,17.20
2023-05-04T04:33:10.357Z,16.13
2023-05-04T04:35:37.990Z,15.70
2023-05-04T04:38:05.526Z,16.52
2023-05-04T04:40:33.142Z,17.48
2023-05-04T04:43:00.718Z,18.42
2023-05-04T04:45:28.603Z,18.27
2023-05-04T04:47:56.433Z,16.88
2023-05-04T04:50:24.113Z,16.90
2023-05-04T04:52:52.466Z,16.33
2023-05-04T04:55:20.279Z,17.58
2023-05-04T04:57:47.924Z,17.33
2023-05-04T05:00:15.716Z,16.80
2023-05-04T05:02:43.653Z,18.88
2023-05-04T05:05:12.839Z,16.55
2023-05-04T05:07:40.450Z,16.05
2023-05-04T05:10:08.543Z,16.45
2023-05-04T05:12:36.318Z,16.30
2023-05-04T05:15:04.491Z,15.68
2023-05-04T05:17:32.167Z,15.50
2023-05-04T05:19:59.837Z,14.93
2023-05-04T05:22:27.915Z,14.70
2023-05-04T05:24:55.430Z,14.43
2023-05-04T05:27:23.017Z,13.45
2023-05-04T05:29:50.596Z,14.15
2023-05-04T05:32:18.145Z,14.82
2023-05-04T05:34:45.665Z,13.70
2023-05-04T05:37:13.210Z,13.32
2023-05-04T05:39:40.869Z,13.45
2023-05-04T05:42:08.690Z,13.02
2023-05-04T05:44:39.217Z,11.65
2023-05-04T05:47:06.815Z,12.60
2023-05-04T05:49:34.987Z,11.48
2023-05-04T05:52:02.582Z,11.25
2023-05-04T05:54:31.813Z,11.48
2023-05-04T05:56:59.575Z,11.68
2023-05-04T05:59:27.091Z,11.57
2023-05-04T06:01:54.758Z,12.57
2023-05-04T06:04:22.484Z,11.80
2023-05-04T06:06:50.103Z,10.88
2023-05-04T06:09:17.632Z,10.80
2023-05-04T06:11:45.562Z,11.32
2023-05-04T06:14:13.147Z,10.60
2023-05-04T06:16:40.862Z,10.80
2023-05-04T06:19:08.541Z,10.63
2023-05-04T06:21:36.110Z,10.55
2023-05-04T06:24:03.721Z,10.98
2023-05-04T06:26:31.290Z,10.70
2023-05-04T06:28:59.018Z,10.00
2023-05-04T06:31:26.706Z,11.68
2023-05-04T06:33:54.300Z,9.95
2023-05-04T06:36:21.845Z,10.38
2023-05-04T06:38:49.336Z,10.75
2023-05-04T06:41:16.836Z,10.57
2023-05-04T06:43:44.446Z,11.07
2023-05-04T06:46:12.091Z,11.57
2023-05-04T06:48:39.615Z,10.65
2023-05-04T06:51:07.154Z,10.15
2023-05-04T06:53:34.665Z,10.70
2023-05-04T06:56:02.608Z,9.63
2023-05-04T06:58:30.129Z,9.00
2023-05-04T07:00:57.719Z,8.82
2023-05-04T07:03:25.279Z,7.82
2023-05-04T07:05:52.843Z,7.95
2023-05-04T07:08:20.409Z,7.68
2023-05-04T07:10:47.960Z,7.78
2023-05-04T07:13:15.628Z,8.52
2023-05-04T07:15:43.180Z,8.05
2023-05-04T07:18:11.035Z,7.88
2023-05-04T07:20:38.756Z,8.15
2023-05-04T07:23:06.263Z,7.30
2023-05-04T07:25:34.563Z,7.55
2023-05-04T07:28:02.656Z,7.45
2023-05-04T07:30:30.299Z,6.80
2023-05-04T07:32:59.062Z,6.65
2023-05-04T07:35:26.994Z,7.63
2023-05-04T07:37:54.855Z,6.47
2023-05-04T07:40:22.501Z,6.70
2023-05-04T07:42:49.981Z,6.45
2023-05-04T07:45:17.649Z,6.57
2023-05-04T07:47:45.266Z,6.05
2023-05-04T07:50:13.585Z,5.75
2023-05-04T07:52:41.164Z,5.53
2023-05-04T07:55:08.943Z,5.68
2023-05-04T07:57:37.743Z,5.75
2023-05-04T08:00:05.948Z,5.28
2023-05-04T08:02:41.120Z,6.10
2023-05-04T08:05:08.943Z,5.78
2023-05-04T08:07:38.789Z,5.25
2023-05-04T08:10:06.700Z,5.18
2023-05-04T08:12:34.376Z,6.05
2023-05-04T08:15:02.029Z,5.60
2023-05-04T08:17:29.810Z,4.85
2023-05-04T08:19:57.428Z,5.25
2023-05-04T08:22:25.069Z,4.53
2023-05-04T08:24:52.598Z,5.05
2023-05-04T08:27:20.223Z,4.40
2023-05-04T08:29:47.705Z,4.57
2023-05-04T08:32:15.194Z,3.75
2023-05-04T08:34:42.747Z,4.07
2023-05-04T08:37:10.329Z,4.00
2023-05-04T08:39:39.437Z,3.35
2023-05-04T08:42:08.913Z,3.80
2023-05-04T08:44:36.525Z,4.22
2023-05-04T08:47:04.673Z,4.20
2023-05-04T08:49:32.830Z,4.07
2023-05-04T08:52:01.536Z,4.47
2023-05-04T08:54:29.609Z,4.20
2023-05-04T08:56:57.439Z,3.92
2023-05-04T08:59:25.895Z,4.38
2023-05-04T09:01:55.532Z,4.57
2023-05-04T09:04:23.403Z,4.32
2023-05-04T09:06:51.785Z,4.20
2023-05-04T09:09:19.488Z,4.25
2023-05-04T09:11:47.909Z,4.03
2023-05-04T09:14:15.893Z,4.20
2023-05-04T09:16:43.461Z,4.35
2023-05-04T09:19:21.228Z,4.22
2023-05-04T09:21:51.344Z,4.32
2023-05-04T09:24:28.709Z,4.43
2023-05-04T09:26:56.473Z,3.90
2023-05-04T09:29:25.638Z,4.13
2023-05-04T09:31:53.708Z,4.18
2023-05-04T09:34:22.186Z,3.70
2023-05-04T09:37:02.394Z,4.03
2023-05-04T09:39:30.450Z,3.90
2023-05-04T09:41:57.988Z,4.35
2023-05-04T09:44:29.487Z,4.55
2023-05-04T09:49:34.702Z,4.18
2023-05-04T09:52:03.208Z,4.15
2023-05-04T09:54:34.631Z,4.32
2023-05-04T09:57:11.581Z,4.07
2023-05-04T09:59:39.794Z,4.30
2023-05-04T10:02:18.602Z,4.72
2023-05-04T10:04:50.953Z,4.70
2023-05-04T10:07:18.833Z,4.05
2023-05-04T10:09:47.510Z,4.38
2023-05-04T10:12:15.045Z,4.30
2023-05-04T10:14:46.901Z,4.05
2023-05-04T10:17:20.731Z,4.00
2023-05-04T10:19:48.220Z,4.18
2023-05-04T10:22:39.327Z,4.10
2023-05-04T10:25:07.310Z,4.53
2023-05-04T10:27:44.846Z,3.97
2023-05-04T10:30:14.211Z,4.38
2023-05-04T10:32:41.864Z,4.53
2023-05-04T10:35:10.217Z,3.85
2023-05-04T10:37:38.146Z,4.07
2023-05-04T10:40:07.824Z,4.57
2023-05-04T10:42:45.114Z,4.40
2023-05-04T10:45:13.601Z,4.05
2023-05-04T10:47:42.272Z,4.00
2023-05-04T10:50:15.869Z,4.18
2023-05-04T10:52:47.333Z,3.55
2023-05-04T10:55:15.244Z,4.35
2023-05-04T10:57:50.049Z,4.47
2023-05-04T11:00:18.191Z,3.83
2023-05-04T11:02:46.958Z,4.43
2023-05-04T11:05:18.153Z,3.60
2023-05-04T11:07:46.113Z,3.38
2023-05-04T11:10:24.308Z,4.32
2023-05-04T11:12:52.405Z,3.42
2023-05-04T11:15:20.062Z,3.63
2023-05-04T11:17:52.164Z,3.88
2023-05-04T11:20:26.687Z,4.40
2023-05-04T11:22:54.695Z,3.72
2023-05-04T11:25:29.166Z,4.00
2023-05-04T11:27:58.048Z,3.70
2023-05-04T11:30:35.198Z,3.95
2023-05-04T11:33:05.114Z,3.70
2023-05-04T11:35:32.767Z,3.65
2023-05-04T11:38:00.337Z,3.90
2023-05-04T11:40:28.044Z,3.92
2023-05-04T11:42:57.218Z,3.80
2023-05-04T11:45:29.434Z,3.78
2023-05-04T11:47:57.496Z,4.20
2023-05-04T11:50:26.068Z,3.92
2023-05-04T11:53:04.277Z,3.80
2023-05-04T11:55:32.298Z,4.25
2023-05-04T11:58:03.937Z,4.97
2023-05-04T12:00:37.201Z,4.72
2023-05-04T12:03:08.749Z,4.32
2023-05-04T12:05:37.508Z,4.15
2023-05-04T12:08:07.182Z,4.30
2023-05-04T12:10:35.170Z,4.70
2023-05-04T12:13:03.016Z,4.53
2023-05-04T12:15:37.337Z,3.95
2023-05-04T12:18:05.036Z,5.03
2023-05-04T12:20:33.389Z,4.10
2023-05-04T12:23:06.771Z,3.88
2023-05-04T12:25:34.529Z,4.00
2023-05-04T12:28:04.681Z,3.65
2023-05-04T12:30:32.330Z,4.03
2023-05-04T12:32:59.962Z,3.95
2023-05-04T12:35:27.607Z,3.47
2023-05-04T12:37:55.252Z,3.47
2023-05-04T12:40:28.723Z,3.63
2023-05-04T12:42:56.717Z,3.78
2023-05-04T12:45:24.269Z,4.85
2023-05-04T12:47:51.920Z,4.45
2023-05-04T12:50:19.458Z,4.18
2023-05-04T12:52:47.089Z,4.13
2023-05-04T12:55:14.754Z,4.07
2023-05-04T12:57:44.811Z,4.28
2023-05-04T13:00:12.902Z,4.25
2023-05-04T13:02:40.617Z,3.85
2023-05-04T13:05:09.067Z,3.63
2023-05-04T13:07:36.729Z,3.50
2023-05-04T13:10:04.327Z,3.95
2023-05-04T13:12:31.854Z,3.45
2023-05-04T13:15:00.256Z,4.13
2023-05-04T13:17:29.528Z,4.05
2023-05-04T13:19:57.204Z,3.80
2023-05-04T13:22:24.780Z,3.45
2023-05-04T13:24:52.264Z,4.00
2023-05-04T13:27:19.800Z,4.00
2023-05-04T13:29:47.300Z,4.65
2023-05-04T13:32:14.873Z,5.30
2023-05-04T13:34:43.477Z,5.50
2023-05-04T13:37:16.539Z,5.07
2023-05-04T13:39:44.233Z,5.15
2023-05-04T13:42:12.530Z,4.80
2023-05-04T13:44:45.349Z,5.20
2023-05-04T13:47:13.369Z,4.88
2023-05-04T13:49:41.021Z,5.28
2023-05-04T13:52:08.835Z,5.10
2023-05-04T13:54:37.126Z,4.82
2023-05-04T13:57:04.719Z,5.63
2023-05-04T13:59:32.319Z,4.57
2023-05-04T14:02:00.045Z,4.40
2023-05-04T14:04:27.636Z,4.90
2023-05-04T14:06:55.842Z,4.60
2023-05-04T14:09:23.723Z,4.60
2023-05-04T14:11:51.530Z,4.80
2023-05-04T14:14:19.026Z,5.20
2023-05-04T14:16:47.458Z,5.03
2023-05-04T14:19:15.013Z,5.25
2023-05-04T14:21:42.591Z,4.70
2023-05-04T14:24:10.296Z,5.30
2023-05-04T14:26:37.989Z,5.53
2023-05-04T14:29:05.508Z,4.85
2023-05-04T14:31:33.056Z,4.47
2023-05-04T14:34:00.667Z,4.68
2023-05-04T14:36:28.212Z,4.60
2023-05-04T14:38:56.014Z,4.50
2023-05-04T14:41:23.626Z,5.32
2023-05-04T14:43:51.286Z,4.40
2023-05-04T14:46:18.862Z,4.38
2023-05-04T14:48:46.410Z,4.18
2023-05-04T14:51:14.013Z,4.30
2023-05-04T14:53:42.070Z,4.50
2023-05-04T14:56:09.605Z,4.20
2023-05-04T14:58:37.118Z,4.30
2023-05-04T15:01:04.705Z,3.58
2023-05-04T15:03:32.619Z,4.30
2023-05-04T15:06:00.696Z,4.18
2023-05-04T15:08:28.231Z,4.43
2023-05-04T15:10:59.038Z,4.10
2023-05-04T15:13:26.871Z,4.00
2023-05-04T15:15:54.499Z,3.72
2023-05-04T15:18:23.860Z,4.13
2023-05-04T15:20:51.453Z,4.00
2023-05-04T15:23:19.005Z,4.50
2023-05-04T15:25:46.657Z,4.20
2023-05-04T15:28:14.233Z,4.40
2023-05-04T15:30:42.374Z,4.10
2023-05-04T15:33:10.072Z,3.85
2023-05-04T15:35:38.733Z,4.60
2023-05-04T15:38:06.290Z,4.40
2023-05-04T15:40:34.252Z,3.88
2023-05-04T15:43:01.795Z,3.55
2023-05-04T15:45:29.375Z,4.10
2023-05-04T15:47:59.350Z,3.95
2023-05-04T15:50:27.111Z,3.88
2023-05-04T15:52:54.691Z,4.15
2023-05-04T15:55:25.511Z,4.47
2023-05-04T15:57:54.161Z,4.32
2023-05-04T16:00:22.100Z,4.32
2023-05-04T16:02:49.687Z,4.68
2023-05-04T16:05:17.428Z,4.10
2023-05-04T16:07:45.168Z,4.28
2023-05-04T16:10:12.957Z,4.32
2023-05-04T16:12:40.912Z,3.65
2023-05-04T16:15:08.609Z,4.22
2023-05-04T16:17:36.221Z,4.10
2023-05-04T16:20:04.690Z,4.63
2023-05-04T16:22:32.701Z,5.18
2023-05-04T16:25:01.255Z,4.63
2023-05-04T16:27:28.933Z,5.40
2023-05-04T16:29:56.751Z,4.38
2023-05-04T16:32:24.481Z,4.30
2023-05-04T16:34:52.610Z,5.40
2023-05-04T16:37:20.500Z,4.57
2023-05-04T16:39:48.150Z,4.47
2023-05-04T16:42:15.677Z,4.80
2023-05-04T16:44:43.419Z,4.22
2023-05-04T16:47:10.975Z,4.65
2023-05-04T16:49:38.562Z,4.60
2023-05-04T16:52:06.366Z,4.15
2023-05-04T16:54:34.115Z,3.28
2023-05-04T16:57:02.013Z,4.25
2023-05-04T16:59:29.523Z,3.90
2023-05-04T17:01:59.039Z,3.72
2023-05-04T17:04:28.932Z,3.88
2023-05-04T17:06:56.534Z,3.63
2023-05-04T17:09:24.149Z,3.60
2023-05-04T17:11:51.819Z,3.47
2023-05-04T17:14:19.439Z,3.58
2023-05-04T17:16:47.070Z,3.50
2023-05-04T17:19:14.617Z,3.80
2023-05-04T17:21:42.215Z,3.78
2023-05-04T17:24:09.767Z,3.65
2023-05-04T17:26:37.299Z,3.63
2023-05-04T17:29:05.078Z,3.53
2023-05-04T17:31:32.671Z,3.50
2023-05-04T17:34:00.401Z,3.30
2023-05-04T17:36:28.329Z,3.45
2023-05-04T17:38:56.003Z,3.15
2023-05-04T17:41:25.029Z,3.65
2023-05-04T17:43:54.006Z,3.35
2023-05-04T17:46:21.884Z,3.80
2023-05-04T17:48:50.003Z,2.97
2023-05-04T17:51:17.556Z,3.55
2023-05-04T17:53:45.693Z,3.40
2023-05-04T17:56:13.314Z,2.83
2023-05-04T17:58:40.865Z,3.13
2023-05-04T18:01:08.456Z,3.15
2023-05-04T18:03:50.714Z,3.35
2023-05-04T18:06:21.378Z,3.42
2023-05-04T18:08:48.891Z,3.50
2023-05-04T18:11:16.712Z,4.28
2023-05-04T18:13:44.239Z,3.50
2023-05-04T18:16:11.990Z,3.17
2023-05-04T18:18:40.507Z,3.08
2023-05-04T18:21:08.124Z,3.42
2023-05-04T18:23:35.946Z,3.00
2023-05-04T18:26:03.930Z,3.08
2023-05-04T18:28:32.069Z,3.05
2023-05-04T18:30:59.614Z,3.20
2023-05-04T18:33:27.320Z,3.00
2023-05-04T18:35:54.831Z,3.22
2023-05-04T18:38:22.438Z,2.78
2023-05-04T18:40:52.929Z,3.45
2023-05-04T18:43:20.460Z,3.40
2023-05-04T18:45:48.008Z,3.10
2023-05-04T18:48:15.978Z,3.58
2023-05-04T18:50:50.893Z,3.70
2023-05-04T18:53:18.417Z,3.65
2023-05-04T18:55:45.938Z,3.78
2023-05-04T18:58:13.487Z,3.75
2023-05-04T19:00:42.268Z,4.10
2023-05-04T19:03:09.863Z,3.58
2023-05-04T19:05:37.416Z,3.15
2023-05-04T19:08:04.974Z,3.38
2023-05-04T19:10:32.464Z,3.30
2023-05-04T19:13:01.163Z,3.42
2023-05-04T19:15:28.963Z,3.08
2023-05-04T19:17:56.835Z,3.47
2023-05-04T19:20:24.377Z,3.30
2023-05-04T19:22:51.871Z,3.33
2023-05-04T19:25:27.368Z,3.35
2023-05-04T19:28:07.752Z,3.53
2023-05-04T19:30:36.679Z,3.15
2023-05-04T19:33:04.551Z,3.20
2023-05-04T19:35:32.222Z,3.35
2023-05-04T19:38:01.326Z,3.38
2023-05-04T19:40:28.887Z,3.63
2023-05-04T19:42:56.445Z,3.47
2023-05-04T19:45:24.104Z,3.40
2023-05-04T19:47:52.786Z,3.53
2023-05-04T19:50:20.898Z,2.95
2023-05-04T19:52:48.553Z,2.95
2023-05-04T19:55:16.695Z,3.92
2023-05-04T19:57:44.672Z,3.20
2023-05-04T20:00:13.101Z,2.88
2023-05-04T20:02:40.870Z,3.20
2023-05-04T20:05:08.719Z,3.28
2023-05-04T20:07:36.331Z,3.20
2023-05-04T20:10:04.093Z,2.83
2023-05-04T20:12:31.692Z,3.70
2023-05-04T20:14:59.337Z,2.92
2023-05-04T20:17:27.461Z,3.20
2023-05-04T20:19:55.097Z,3.00
2023-05-04T20:22:22.674Z,2.78
2023-05-04T20:24:50.326Z,3.00
2023-05-04T20:27:18.016Z,3.05
2023-05-04T20:29:45.565Z,3.40
2023-05-04T20:32:13.152Z,3.05
2023-05-04T20:34:42.903Z,2.70
2023-05-04T20:37:10.478Z,2.67
2023-05-04T20:39:38.022Z,3.05
2023-05-04T20:42:05.627Z,3.17
2023-05-04T20:44:34.271Z,3.05
2023-05-04T20:47:02.388Z,3.10
2023-05-04T20:49:29.899Z,3.13
2023-05-04T20:51:57.796Z,2.95
2023-05-04T20:54:25.361Z,3.13
2023-05-04T20:56:52.948Z,3.35
2023-05-04T20:59:20.601Z,3.00
2023-05-04T21:01:48.136Z,2.97
2023-05-04T21:04:15.802Z,2.95
2023-05-04T21:06:44.024Z,2.55
2023-05-04T21:09:12.844Z,3.00
2023-05-04T21:11:40.672Z,3.00
2023-05-04T21:14:08.184Z,3.10
2023-05-04T21:16:35.848Z,2.95
2023-05-04T21:19:03.400Z,3.08
2023-05-04T21:21:32.450Z,3.58
2023-05-04T21:24:00.001Z,2.95
2023-05-04T21:26:27.503Z,3.42
2023-05-04T21:28:55.051Z,3.38
2023-05-04T21:31:22.638Z,3.00
2023-05-04T21:33:51.599Z,3.53
2023-05-04T21:36:19.167Z,3.40
2023-05-04T21:38:46.981Z,3.72
2023-05-04T21:41:15.191Z,3.70
2023-05-04T21:43:43.080Z,4.05
2023-05-04T21:46:12.011Z,3.30
2023-05-04T21:48:39.672Z,3.08
2023-05-04T21:51:07.436Z,3.78
2023-05-04T21:53:35.048Z,3.70
2023-05-04T21:56:06.394Z,3.25
2023-05-04T21:58:34.063Z,3.40
2023-05-04T22:01:01.602Z,3.38
2023-05-04T22:03:29.802Z,3.35
2023-05-04T22:05:57.848Z,3.10
2023-05-04T22:08:26.006Z,3.35
2023-05-04T22:10:54.405Z,3.60
2023-05-04T22:13:22.344Z,3.83
2023-05-04T22:15:50.784Z,3.40
2023-05-04T22:18:18.749Z,4.47
2023-05-04T22:20:46.535Z,4.07
2023-05-04T22:23:14.565Z,3.70
2023-05-04T22:25:42.306Z,3.50
2023-05-04T22:28:09.863Z,3.50
2023-05-04T22:30:37.585Z,4.00
2023-05-04T22:33:05.233Z,3.50
2023-05-04T22:35:32.866Z,3.15
2023-05-04T22:38:00.452Z,3.67
2023-05-04T22:40:28.223Z,3.75
2023-05-04T22:42:55.742Z,3.83
2023-05-04T22:45:23.349Z,3.28
2023-05-04T22:47:51.836Z,3.55
2023-05-04T22:50:19.671Z,3.25
2023-05-04T22:52:47.348Z,3.35
2023-05-04T22:55:15.121Z,3.80
2023-05-04T22:57:42.612Z,3.88
2023-05-04T23:00:10.638Z,3.78
2023-05-04T23:02:38.522Z,4.05
2023-05-04T23:05:06.817Z,3.85
2023-05-04T23:07:34.339Z,4.10
2023-05-04T23:10:02.172Z,3.67
2023-05-04T23:12:29.888Z,3.97
2023-05-04T23:14:57.696Z,3.92
2023-05-04T23:17:25.394Z,3.88
2023-05-04T23:19:52.991Z,4.30
2023-05-04T23:22:20.514Z,3.85
2023-05-04T23:24:48.087Z,4.03
2023-05-04T23:27:15.627Z,4.10
2023-05-04T23:29:43.132Z,3.55
2023-05-04T23:32:10.993Z,3.83
2023-05-04T23:34:38.666Z,3.90
2023-05-04T23:37:06.356Z,4.20
2023-05-04T23:39:34.531Z,3.78
2023-05-04T23:42:02.097Z,4.13
2023-05-04T23:44:29.627Z,4.20
2023-05-04T23:46:57.148Z,4.40
2023-05-04T23:49:24.668Z,4.72
2023-05-04T23:51:52.899Z,4.80
2023-05-04T23:54:20.467Z,3.97
2023-05-04T23:56:47.981Z,4.60
2023-05-04T23:59:15.798Z,4.05
